Time;durP1;ratioP1;P1;durP2;ratioP2;P2;SDS_P1;SDS_P2;PMS_P1;PMS_P2;Temp;Humidity;BMP_temperature;BMP_pressure;BME280_temperature;BME280_humidity;BME280_pressure;Samples;Min_cycle;Max_cycle;Signal;HPM_P1;HPM_P2
2024/01/02 00:01:55;;;;;;;9.00;6.50;;;;;;;2.26;100.00;96971.73;110338;1242;59661;-73
2024/01/02 00:04:25;;;;;;;10.30;7.60;;;;;;;2.25;100.00;96974.23;110280;1238;59715;-72
2024/01/02 00:06:56;;;;;;;10.10;6.90;;;;;;;2.23;100.00;96975.88;110354;1241;70613;-73
2024/01/02 00:09:25;;;;;;;8.80;5.50;;;;;;;2.21;100.00;96978.16;110412;1238;69867;-73
2024/01/02 00:11:55;;;;;;;8.80;6.10;;;;;;;2.20;100.00;96979.27;110320;1240;68230;-73
2024/01/02 00:14:28;;;;;;;11.70;7.00;;;;;;;2.20;100.00;96981.00;110347;1240;59682;-73
2024/01/02 00:16:57;;;;;;;11.20;7.80;;;;;;;2.20;100.00;96978.55;110387;1241;59626;-73
2024/01/02 00:19:27;;;;;;;;;;;;;;;2.23;100.00;96978.27;110451;1241;71614;-73
2024/01/02 00:21:57;;;;;;;15.30;10.90;;;;;;;2.23;100.00;96978.79;110378;1241;69131;-72
2024/01/02 00:24:26;;;;;;;16.00;11.80;;;;;;;2.23;100.00;96981.52;110338;1238;68477;-73
2024/01/02 00:26:55;;;;;;;14.00;10.30;;;;;;;2.23;100.00;96988.77;110359;1240;59674;-73
2024/01/02 00:29:25;;;;;;;13.70;9.40;;;;;;;2.23;100.00;96992.39;110364;1243;59676;-73
2024/01/02 00:31:55;;;;;;;12.50;9.00;;;;;;;2.24;100.00;96996.79;110397;1241;71998;-72
2024/01/02 00:34:25;;;;;;;10.30;7.70;;;;;;;2.27;100.00;96991.14;110390;1241;69168;-72
2024/01/02 00:36:54;;;;;;;12.40;8.80;;;;;;;2.31;100.00;96990.79;110323;1247;69521;-73
2024/01/02 00:39:24;;;;;;;11.90;8.00;;;;;;;2.36;100.00;96988.17;110343;1248;59746;-72
2024/01/02 00:41:54;;;;;;;10.10;7.40;;;;;;;2.40;100.00;96989.65;110376;1241;59676;-74
2024/01/02 00:44:23;;;;;;;9.70;7.10;;;;;;;2.44;100.00;96996.54;110331;1238;71955;-74
2024/01/02 00:46:53;;;;;;;10.70;6.40;;;;;;;2.47;100.00;96996.94;110431;1238;69084;-72
2024/01/02 00:49:23;;;;;;;8.90;6.20;;;;;;;2.49;100.00;96990.27;110383;1241;68339;-73
2024/01/02 00:51:54;;;;;;;9.50;6.90;;;;;;;2.50;100.00;96993.66;110435;1241;59722;-74
2024/01/02 00:54:25;;;;;;;8.80;6.60;;;;;;;2.52;100.00;96994.27;110368;1241;59704;-72
2024/01/02 00:56:56;;;;;;;10.60;6.90;;;;;;;2.55;100.00;96991.05;110344;1241;70668;-74
2024/01/02 00:59:26;;;;;;;8.70;5.80;;;;;;;2.58;100.00;96991.61;110430;1242;69228;-72
2024/01/02 01:01:57;;;;;;;6.90;5.30;;;;;;;2.61;100.00;96993.85;110370;1240;68895;-73
2024/01/02 01:04:28;;;;;;;9.40;5.80;;;;;;;2.64;100.00;96994.41;110402;1241;59660;-73
2024/01/02 01:06:59;;;;;;;8.30;5.60;;;;;;;2.66;100.00;96996.05;110443;1241;59738;-73
2024/01/02 01:09:29;;;;;;;9.60;7.50;;;;;;;2.67;100.00;96996.17;110399;1238;71943;-73
2024/01/02 01:12:01;;;;;;;9.80;6.90;;;;;;;2.67;100.00;96990.45;110423;1238;69381;-72
2024/01/02 01:14:32;;;;;;;12.70;7.40;;;;;;;2.66;100.00;96988.61;110411;1241;69723;-73
2024/01/02 01:17:04;;;;;;;9.90;7.00;;;;;;;2.65;100.00;96991.44;110458;1241;59727;-73
2024/01/02 01:19:35;;;;;;;9.30;5.70;;;;;;;2.66;100.00;96991.06;110413;1242;59631;-73
2024/01/02 01:22:06;;;;;;;9.60;6.40;;;;;;;2.65;100.00;96986.95;110388;1242;72007;-73
2024/01/02 01:24:36;;;;;;;10.00;7.10;;;;;;;2.65;100.00;96990.42;110358;1241;69375;-73
2024/01/02 01:27:07;;;;;;;9.80;6.40;;;;;;;2.63;100.00;96990.70;110377;1238;68550;-73
2024/01/02 01:29:37;;;;;;;;;;;;;;;2.60;100.00;96993.73;110381;1242;59751;-72
2024/01/02 01:32:09;;;;;;;8.40;5.90;;;;;;;2.58;100.00;96994.54;110444;1238;59698;-72
2024/01/02 01:34:40;;;;;;;10.80;7.60;;;;;;;2.56;100.00;96992.56;110382;1241;70900;-72
2024/01/02 01:37:10;;;;;;;10.80;6.90;;;;;;;2.54;100.00;96991.94;110376;1238;68730;-74
2024/01/02 01:39:42;;;;;;;8.30;6.30;;;;;;;2.52;100.00;96991.87;110255;1242;69237;-74
2024/01/02 01:42:13;;;;;;;12.60;8.20;;;;;;;2.50;100.00;96993.52;110360;1238;59701;-74
2024/01/02 01:44:44;;;;;;;10.70;6.80;;;;;;;2.46;100.00;96995.56;110345;1238;59669;-74
2024/01/02 01:47:14;;;;;;;11.10;7.00;;;;;;;2.44;100.00;96996.89;110366;1241;71330;-72
2024/01/02 01:49:46;;;;;;;9.20;6.70;;;;;;;2.43;100.00;96997.28;110313;1242;68281;-74
2024/01/02 01:52:20;;;;;;;9.10;6.20;;;;;;;2.37;100.00;96990.54;110331;1241;69262;-72
2024/01/02 01:54:51;;;;;;;9.80;6.00;;;;;;;2.36;100.00;96993.98;110343;1238;59645;-72
2024/01/02 01:57:21;;;;;;;10.20;6.00;;;;;;;2.39;100.00;96991.09;110419;1241;59678;-72
2024/01/02 01:59:52;;;;;;;8.90;5.50;;;;;;;2.42;100.00;96990.95;110346;1238;71204;-72
2024/01/02 02:02:25;;;;;;;8.30;5.30;;;;;;;2.47;100.00;96994.02;110335;1242;69254;-72
2024/01/02 02:04:59;;;;;;;7.70;4.90;;;;;;;2.49;100.00;96988.88;110387;1238;68505;-73
2024/01/02 02:07:31;;;;;;;7.70;6.20;;;;;;;2.51;100.00;96993.11;110361;1243;59722;-74
2024/01/02 02:10:02;;;;;;;7.80;5.60;;;;;;;2.53;100.00;96996.60;110451;1239;59654;-73
2024/01/02 02:12:35;;;;;;;9.30;5.60;;;;;;;2.54;100.00;96994.67;110315;1242;71389;-72
2024/01/02 02:15:07;;;;;;;9.10;7.10;;;;;;;2.58;100.00;96992.29;110307;1242;68424;-72
2024/01/02 02:17:46;;;;;;;;;;;;;;;2.56;100.00;96989.63;110372;1241;68556;-73
2024/01/02 02:20:22;;;;;;;8.40;5.70;;;;;;;2.54;100.00;96990.73;110357;1241;59699;-72
2024/01/02 02:22:54;;;;;;;10.60;7.30;;;;;;;2.52;100.00;96991.70;110300;1242;59646;-72
2024/01/02 02:25:31;;;;;;;11.00;7.10;;;;;;;2.49;100.00;96996.98;110302;1238;70627;-73
2024/01/02 02:28:04;;;;;;;7.40;4.60;;;;;;;2.46;100.00;96999.36;110344;1241;69165;-72
2024/01/02 02:30:38;;;;;;;7.70;5.30;;;;;;;2.44;100.00;96994.65;110323;1241;68862;-73
2024/01/02 02:33:11;;;;;;;7.50;4.90;;;;;;;2.41;100.00;96991.70;110394;1240;59750;-73
2024/01/02 02:35:44;;;;;;;9.10;5.50;;;;;;;2.39;100.00;96989.88;110384;1238;59720;-72
2024/01/02 02:38:19;;;;;;;7.20;4.70;;;;;;;2.36;100.00;96993.66;110275;1243;71484;-73
2024/01/02 02:40:51;;;;;;;9.50;5.80;;;;;;;2.31;100.00;96993.55;110370;1242;69267;-73
2024/01/02 02:43:23;;;;;;;8.30;5.10;;;;;;;2.26;100.00;96995.66;110327;1241;68610;-72
2024/01/02 02:45:54;;;;;;;5.80;4.70;;;;;;;2.21;100.00;96995.20;110388;1241;59746;-72
2024/01/02 02:48:25;;;;;;;6.60;4.50;;;;;;;2.18;100.00;96994.68;110373;1241;59704;-72
2024/01/02 02:50:56;;;;;;;7.60;4.90;;;;;;;2.14;100.00;96992.97;110367;1241;71638;-72
2024/01/02 02:53:29;;;;;;;6.70;4.80;;;;;;;2.11;100.00;96995.33;110355;1241;68446;-72
2024/01/02 02:56:04;;;;;;;6.90;4.80;;;;;;;2.06;100.00;96990.56;110421;1238;68317;-73
2024/01/02 02:58:36;;;;;;;6.30;4.30;;;;;;;2.03;100.00;96998.10;110350;1241;59737;-72
2024/01/02 03:01:23;;;;;;;7.90;5.60;;;;;;;1.98;100.00;96995.38;110395;1241;59666;-73
2024/01/02 03:03:56;;;;;;;6.70;4.90;;;;;;;1.95;100.00;96998.31;110424;1238;70445;-72
2024/01/02 03:06:29;;;;;;;7.00;5.20;;;;;;;1.91;100.00;96996.05;110567;1238;69139;-73
2024/01/02 03:09:04;;;;;;;9.40;5.20;;;;;;;1.88;100.00;96993.59;110373;1242;67639;-72
2024/01/02 03:11:36;;;;;;;9.90;6.30;;;;;;;1.83;100.00;96996.93;110407;1242;59679;-73
2024/01/02 03:14:09;;;;;;;10.10;7.10;;;;;;;1.77;100.00;96991.67;110426;1239;59755;-73
2024/01/02 03:16:43;;;;;;;12.70;8.30;;;;;;;1.71;100.00;96993.86;110416;1238;70565;-73
2024/01/02 03:19:14;;;;;;;8.70;5.80;;;;;;;1.64;100.00;96994.69;110349;1238;69291;-73
2024/01/02 03:21:48;;;;;;;11.20;7.80;;;;;;;1.58;100.00;97000.95;110275;1248;69185;-73
2024/01/02 03:24:24;;;;;;;9.90;7.50;;;;;;;1.51;100.00;97001.75;110319;1241;59659;-73
2024/01/02 03:27:02;;;;;;;10.20;6.50;;;;;;;1.46;100.00;97000.95;110313;1242;59663;-72
2024/01/02 03:29:36;;;;;;;12.10;7.90;;;;;;;1.41;100.00;96998.24;110317;1238;71943;-73
2024/01/02 03:32:09;;;;;;;8.30;5.90;;;;;;;1.35;100.00;96999.38;110379;1238;69420;-73
2024/01/02 03:34:44;;;;;;;9.50;6.60;;;;;;;1.27;100.00;97003.11;110348;1241;68617;-73
2024/01/02 03:37:16;;;;;;;9.00;5.80;;;;;;;1.22;100.00;97000.25;110342;1242;59673;-73
2024/01/02 03:39:52;;;;;;;8.00;6.10;;;;;;;1.14;100.00;97005.40;110441;1241;59646;-73
2024/01/02 03:42:24;;;;;;;8.00;5.70;;;;;;;1.12;100.00;97007.91;110395;1238;70735;-73
2024/01/02 03:44:57;;;;;;;7.90;5.90;;;;;;;1.10;100.00;97010.88;110364;1241;67512;-73
2024/01/02 03:47:29;;;;;;;6.40;5.00;;;;;;;1.08;100.00;97011.83;110275;1249;69152;-73
2024/01/02 03:50:04;;;;;;;5.60;4.30;;;;;;;1.04;100.00;97009.95;110415;1241;59745;-73
2024/01/02 03:52:35;;;;;;;8.70;5.10;;;;;;;1.01;100.00;97007.46;110374;1238;59699;-73
2024/01/02 03:55:07;;;;;;;6.60;5.40;;;;;;;0.99;100.00;97012.17;110382;1242;71383;-73
2024/01/02 03:57:38;;;;;;;7.50;5.20;;;;;;;0.97;100.00;97014.48;110367;1241;68258;-73
2024/01/02 04:00:15;;;;;;;7.10;5.00;;;;;;;0.97;100.00;97018.80;110366;1241;69104;-73
2024/01/02 04:02:47;;;;;;;7.50;5.00;;;;;;;0.96;100.00;97022.92;110300;1238;59728;-73
2024/01/02 04:05:19;;;;;;;9.00;5.70;;;;;;;0.97;100.00;97023.08;110475;1248;59740;-73
2024/01/02 04:07:50;;;;;;;7.60;5.40;;;;;;;0.98;100.00;97018.73;110365;1238;71304;-73
2024/01/02 04:10:21;;;;;;;6.90;4.20;;;;;;;0.98;100.00;97018.89;110396;1239;68088;-72
2024/01/02 04:12:53;;;;;;;8.00;5.50;;;;;;;1.00;100.00;97019.02;110434;1238;68531;-73
2024/01/02 04:15:27;;;;;;;10.00;7.00;;;;;;;0.98;100.00;97019.79;110362;1241;59728;-73
2024/01/02 04:18:00;;;;;;;9.50;6.40;;;;;;;0.96;100.00;97011.27;110376;1241;59657;-73
2024/01/02 04:20:32;;;;;;;8.90;6.30;;;;;;;0.95;100.00;97010.45;110368;1240;70557;-73
2024/01/02 04:23:07;;;;;;;10.90;7.10;;;;;;;0.93;100.00;97006.45;110360;1238;69261;-73
2024/01/02 04:25:45;;;;;;;7.20;5.60;;;;;;;0.89;100.00;97004.54;110365;1241;69262;-73
2024/01/02 04:28:16;;;;;;;11.00;7.60;;;;;;;0.85;100.00;97004.35;110461;1241;59744;-73
2024/01/02 04:30:49;;;;;;;11.00;6.30;;;;;;;0.82;100.00;97007.41;110475;1241;59688;-72
2024/01/02 04:33:21;;;;;;;10.50;6.80;;;;;;;0.78;100.00;97009.60;110380;1238;70653;-73
2024/01/02 04:35:53;;;;;;;7.60;5.50;;;;;;;0.75;100.00;97012.66;110351;1241;68468;-73
2024/01/02 04:38:25;;;;;;;10.60;6.40;;;;;;;0.73;100.00;97013.25;110361;1242;69124;-73
2024/01/02 04:40:59;;;;;;;7.40;6.30;;;;;;;0.69;100.00;97013.56;110381;1242;59702;-73
2024/01/02 04:43:32;;;;;;;7.80;5.50;;;;;;;0.68;100.00;97018.60;110422;1242;59703;-73
2024/01/02 04:46:06;;;;;;;8.70;5.50;;;;;;;0.66;100.00;97019.20;110446;1241;71280;-73
2024/01/02 04:48:37;;;;;;;8.40;5.30;;;;;;;0.65;100.00;97018.54;110428;1241;69062;-72
2024/01/02 04:51:09;;;;;;;11.00;6.20;;;;;;;0.65;100.00;97016.83;110402;1241;68890;-73
2024/01/02 04:53:43;;;;;;;8.20;5.80;;;;;;;0.64;100.00;97018.08;110469;1241;59741;-72
2024/01/02 04:56:14;;;;;;;8.00;5.40;;;;;;;0.61;100.00;97017.84;110435;1241;59669;-72
2024/01/02 04:58:48;;;;;;;7.90;5.30;;;;;;;0.57;100.00;97014.92;110362;1238;69633;-73
2024/01/02 05:01:20;;;;;;;7.40;5.00;;;;;;;0.53;100.00;97015.40;110400;1241;69664;-73
2024/01/02 05:03:52;;;;;;;8.20;5.90;;;;;;;0.50;100.00;97011.23;110392;1242;69269;-73
2024/01/02 05:06:24;;;;;;;7.10;4.70;;;;;;;0.48;100.00;97014.54;110463;1242;59737;-71
2024/01/02 05:08:57;;;;;;;6.70;4.60;;;;;;;0.49;100.00;97011.78;110411;1241;59740;-74
2024/01/02 05:11:36;;;;;;;7.20;5.30;;;;;;;0.48;100.00;97014.73;110404;1241;71422;-74
2024/01/02 05:14:08;;;;;;;7.10;5.20;;;;;;;0.46;100.00;97012.91;110449;1241;69199;-72
2024/01/02 05:16:39;;;;;;;7.50;4.50;;;;;;;0.46;100.00;97018.77;110351;1241;68298;-72
2024/01/02 05:19:10;;;;;;;9.60;4.90;;;;;;;0.47;100.00;97020.80;110443;1241;59703;-74
2024/01/02 05:21:41;;;;;;;8.60;5.70;;;;;;;0.45;100.00;97015.00;110381;1238;59706;-72
2024/01/02 05:24:13;;;;;;;9.00;5.60;;;;;;;0.46;100.00;97015.32;110351;1238;71413;-72
2024/01/02 05:26:45;;;;;;;7.40;5.70;;;;;;;0.48;100.00;97018.85;110476;1242;68743;-72
2024/01/02 05:29:16;;;;;;;5.90;5.00;;;;;;;0.47;100.00;97013.91;110448;1238;69410;-72
2024/01/02 05:31:48;;;;;;;8.30;5.70;;;;;;;0.47;100.00;97008.27;110366;1238;59716;-72
2024/01/02 05:34:19;;;;;;;6.90;5.00;;;;;;;0.47;100.00;97008.42;110423;1241;59598;-72
2024/01/02 05:36:50;;;;;;;8.90;6.90;;;;;;;0.47;100.00;97011.34;110341;1238;70649;-71
2024/01/02 05:39:21;;;;;;;7.80;5.10;;;;;;;0.47;100.00;97014.77;110377;1238;69387;-72
2024/01/02 05:41:52;;;;;;;9.70;5.90;;;;;;;0.46;100.00;97015.83;110355;1238;68501;-72
2024/01/02 05:44:26;;;;;;;7.90;5.30;;;;;;;0.46;100.00;97023.21;110405;1238;59646;-73
2024/01/02 05:46:58;;;;;;;7.70;5.60;;;;;;;0.45;100.00;97023.39;110390;1242;59664;-72
2024/01/02 05:49:30;;;;;;;5.50;4.20;;;;;;;0.45;100.00;97022.75;110346;1241;71667;-72
2024/01/02 05:52:02;;;;;;;7.30;4.60;;;;;;;0.45;100.00;97026.84;110434;1241;69712;-72
2024/01/02 05:54:33;;;;;;;6.30;5.00;;;;;;;0.46;100.00;97030.42;110353;1241;69140;-72
2024/01/02 05:57:04;;;;;;;5.40;4.10;;;;;;;0.47;100.00;97027.30;110353;1242;59747;-73
2024/01/02 05:59:34;;;;;;;5.60;4.30;;;;;;;0.48;100.00;97027.61;110496;1241;59687;-72
2024/01/02 06:02:06;;;;;;;6.30;4.90;;;;;;;0.48;100.00;97023.81;110362;1241;71452;-72
2024/01/02 06:04:36;;;;;;;;;;;;;;;0.49;100.00;97028.40;110379;1241;70325;-73
2024/01/02 06:07:07;;;;;;;7.80;4.60;;;;;;;0.50;100.00;97031.09;110376;1248;69862;-73
2024/01/02 06:09:38;;;;;;;7.20;5.90;;;;;;;0.53;100.00;97035.33;110382;1238;59660;-72
2024/01/02 06:12:09;;;;;;;8.40;5.90;;;;;;;0.55;100.00;97034.73;110350;1241;59690;-73
2024/01/02 06:14:40;;;;;;;14.00;8.70;;;;;;;0.56;100.00;97035.71;110364;1241;71457;-72
2024/01/02 06:17:12;;;;;;;13.70;9.20;;;;;;;0.56;100.00;97036.55;110362;1241;69210;-73
2024/01/02 06:19:43;;;;;;;12.30;8.00;;;;;;;0.56;100.00;97034.33;110366;1241;68858;-73
2024/01/02 06:22:13;;;;;;;10.50;7.70;;;;;;;0.56;100.00;97034.85;110355;1241;59740;-72
2024/01/02 06:24:43;;;;;;;9.50;6.70;;;;;;;0.57;100.00;97036.55;110485;1241;59627;-72
2024/01/02 06:27:14;;;;;;;9.90;6.30;;;;;;;0.56;100.00;97039.66;110376;1241;70269;-72
2024/01/02 06:29:44;;;;;;;9.50;6.80;;;;;;;0.55;100.00;97035.92;110434;1241;69096;-73
2024/01/02 06:32:18;;;;;;;13.00;9.20;;;;;;;0.55;100.00;97029.74;110222;1245;68578;-72
2024/01/02 06:34:48;;;;;;;11.00;8.60;;;;;;;0.58;100.00;97040.24;110402;1241;59675;-72
2024/01/02 06:37:18;;;;;;;10.20;7.10;;;;;;;0.61;100.00;97050.92;110379;1241;59662;-72
2024/01/02 06:39:48;;;;;;;;;;;;;;;0.63;100.00;97037.50;110372;1241;71984;-73
2024/01/02 06:42:18;;;;;;;9.20;5.90;;;;;;;0.67;100.00;97036.30;110345;1242;69366;-73
2024/01/02 06:44:49;;;;;;;7.40;5.80;;;;;;;0.72;100.00;97043.79;110461;1242;69357;-72
2024/01/02 06:47:19;;;;;;;9.40;6.30;;;;;;;0.75;100.00;97048.86;110269;1239;59747;-73
2024/01/02 06:49:50;;;;;;;10.50;7.40;;;;;;;0.74;100.00;97039.28;110494;1241;59737;-73
2024/01/02 06:52:19;;;;;;;11.80;8.50;;;;;;;0.76;100.00;97045.23;110433;1238;71662;-74
2024/01/02 06:54:49;;;;;;;12.90;7.70;;;;;;;0.78;100.00;97048.05;110448;1241;69069;-73
2024/01/02 06:57:18;;;;;;;10.60;8.00;;;;;;;0.80;100.00;97044.02;110497;1241;69277;-74
2024/01/02 06:59:48;;;;;;;14.00;8.80;;;;;;;0.82;100.00;97049.42;110733;1238;59753;-74
2024/01/02 07:02:19;;;;;;;9.20;6.20;;;;;;;0.86;100.00;97051.31;110575;1240;59699;-73
2024/01/02 07:04:49;;;;;;;10.40;6.40;;;;;;;0.92;100.00;97050.89;110656;1241;70662;-74
2024/01/02 07:07:18;;;;;;;9.50;6.30;;;;;;;0.98;100.00;97053.39;110624;1241;69739;-74
2024/01/02 07:09:47;;;;;;;8.00;5.90;;;;;;;1.05;100.00;97055.72;110414;1241;69764;-75
2024/01/02 07:12:17;;;;;;;8.20;5.50;;;;;;;1.13;100.00;97054.54;110373;1241;59667;-74
2024/01/02 07:14:47;;;;;;;6.60;5.30;;;;;;;1.19;100.00;97057.88;110466;1240;59740;-75
2024/01/02 07:17:19;;;;;;;9.50;7.10;;;;;;;1.27;100.00;97064.95;110414;1242;70481;-74
2024/01/02 07:19:51;;;;;;;8.90;6.90;;;;;;;1.33;100.00;97064.88;110368;1240;68706;-74
2024/01/02 07:22:20;;;;;;;10.40;7.30;;;;;;;1.39;100.00;97067.02;110330;1242;69282;-74
2024/01/02 07:24:49;;;;;;;8.40;6.70;;;;;;;1.46;100.00;97060.52;110172;1242;59698;-75
2024/01/02 07:27:18;;;;;;;11.50;8.10;;;;;;;1.55;100.00;97061.19;110282;1241;59765;-74
2024/01/02 07:29:48;;;;;;;13.90;9.80;;;;;;;1.63;100.00;97058.64;110298;1240;71017;-75
2024/01/02 07:32:18;;;;;;;14.30;10.40;;;;;;;1.70;100.00;97062.26;110344;1241;68487;-73
2024/01/02 07:34:47;;;;;;;21.50;13.30;;;;;;;1.79;100.00;97061.19;110351;1241;69230;-74
2024/01/02 07:37:16;;;;;;;24.00;17.30;;;;;;;1.85;100.00;97061.95;110334;1245;60133;-74
2024/01/02 07:39:45;;;;;;;99.50;61.50;;;;;;;1.91;100.00;97064.30;110404;1241;59758;-73
2024/01/02 07:42:15;;;;;;;77.10;47.20;;;;;;;1.96;100.00;97068.19;110470;1241;71821;-72
2024/01/02 07:44:44;;;;;;;23.10;16.90;;;;;;;2.03;100.00;97066.16;110309;1241;69811;-73
2024/01/02 07:47:16;;;;;;;16.10;13.10;;;;;;;2.11;100.00;97066.30;110319;1242;69148;-73
2024/01/02 07:49:46;;;;;;;14.10;10.70;;;;;;;2.25;100.00;97064.46;110299;1241;59721;-73
2024/01/02 07:52:15;;;;;;;10.90;9.30;;;;;;;2.36;100.00;97059.70;110389;1242;59627;-73
2024/01/02 07:54:44;;;;;;;11.20;8.40;;;;;;;2.43;100.00;97064.69;110394;1240;72018;-73
2024/01/02 07:57:14;;;;;;;12.80;9.20;;;;;;;2.51;100.00;97060.56;110366;1241;70201;-73
2024/01/02 07:59:43;;;;;;;17.50;11.50;;;;;;;2.57;100.00;97059.23;110430;1238;69945;-71
2024/01/02 08:02:12;;;;;;;17.90;12.40;;;;;;;2.64;100.00;97063.58;110396;1241;59675;-72
2024/01/02 08:04:43;;;;;;;14.70;11.70;;;;;;;2.66;100.00;97064.02;110374;1241;59672;-72
2024/01/02 08:07:13;;;;;;;19.40;15.20;;;;;;;2.67;100.00;97062.92;110332;1238;71479;-73
2024/01/02 08:09:43;;;;;;;27.40;20.70;;;;;;;2.67;100.00;97059.64;110433;1239;69246;-73
2024/01/02 08:12:12;;;;;;;41.10;28.70;;;;;;;2.66;100.00;97061.40;110472;1242;68528;-73
2024/01/02 08:14:41;;;;;;;46.10;28.50;;;;;;;2.62;100.00;97059.52;110434;1242;59677;-72
2024/01/02 08:17:11;;;;;;;21.90;16.50;;;;;;;2.66;100.00;97060.70;110394;1242;59736;-73
2024/01/02 08:19:40;;;;;;;17.40;13.60;;;;;;;2.76;100.00;97064.54;110491;1238;72390;-73
2024/01/02 08:22:12;;;;;;;16.20;11.40;;;;;;;2.84;100.00;97063.48;110407;1241;69822;-73
2024/01/02 08:24:41;;;;;;;14.50;10.80;;;;;;;2.95;100.00;97064.34;110420;1238;69408;-74
2024/01/02 08:27:13;;;;;;;13.40;10.80;;;;;;;3.05;100.00;97067.98;110405;1238;59671;-73
2024/01/02 08:29:42;;;;;;;13.80;9.90;;;;;;;3.14;100.00;97071.35;110412;1241;59692;-73
2024/01/02 08:32:15;;;;;;;12.70;9.20;;;;;;;3.21;100.00;97070.98;110399;1241;71314;-73
2024/01/02 08:34:44;;;;;;;13.50;10.40;;;;;;;3.29;100.00;97072.81;110405;1241;70109;-73
2024/01/02 08:37:13;;;;;;;13.60;10.20;;;;;;;3.40;100.00;97076.27;110391;1238;69331;-73
2024/01/02 08:39:42;;;;;;;14.90;10.10;;;;;;;3.47;100.00;97072.80;110474;1244;59675;-74
2024/01/02 08:42:11;;;;;;;15.20;11.00;;;;;;;3.56;100.00;97061.00;110466;1241;59598;-72
2024/01/02 08:44:41;;;;;;;16.40;12.50;;;;;;;3.65;100.00;97061.74;110510;1238;70659;-74
2024/01/02 08:47:11;;;;;;;13.10;10.60;;;;;;;3.71;100.00;97050.09;110504;1241;69314;-73
2024/01/02 08:49:41;;;;;;;14.40;11.30;;;;;;;3.80;100.00;97048.41;110487;1241;69613;-74
2024/01/02 08:52:10;;;;;;;16.10;12.40;;;;;;;3.95;100.00;97044.72;110488;1242;59705;-75
2024/01/02 08:54:39;;;;;;;15.70;12.30;;;;;;;4.06;100.00;97039.46;110434;1238;59614;-73
2024/01/02 08:57:08;;;;;;;13.70;10.10;;;;;;;4.15;100.00;97036.42;110518;1242;71962;-72
2024/01/02 08:59:38;;;;;;;13.40;9.20;;;;;;;4.21;100.00;97036.95;110381;1242;69850;-73
2024/01/02 09:02:07;;;;;;;11.70;8.50;;;;;;;4.17;100.00;97030.09;110382;1241;69892;-73
2024/01/02 09:04:36;;;;;;;10.60;7.60;;;;;;;4.29;100.00;97026.34;110372;1239;59695;-73
2024/01/02 09:07:06;;;;;;;11.00;7.50;;;;;;;4.33;100.00;97030.29;110387;1241;59669;-73
2024/01/02 09:09:35;;;;;;;9.50;7.30;;;;;;;4.39;100.00;97039.80;110391;1241;71306;-73
2024/01/02 09:12:08;;;;;;;8.70;6.40;;;;;;;4.43;100.00;97038.89;110433;1238;69824;-73
2024/01/02 09:14:36;;;;;;;8.20;5.50;;;;;;;4.55;100.00;97035.45;110552;1239;69785;-73
2024/01/02 09:17:06;;;;;;;9.40;5.90;;;;;;;4.70;100.00;97030.81;110487;1241;59730;-73
2024/01/02 09:19:35;;;;;;;9.20;6.30;;;;;;;4.91;100.00;97027.42;110451;1239;59686;-73
2024/01/02 09:22:04;;;;;;;8.20;6.00;;;;;;;5.07;100.00;97031.15;110407;1241;71322;-73
2024/01/02 09:24:33;;;;;;;8.30;5.20;;;;;;;5.23;100.00;97026.09;110447;1242;69234;-73
2024/01/02 09:27:04;;;;;;;9.10;6.10;;;;;;;5.33;100.00;97021.58;110349;1238;69188;-73
2024/01/02 09:29:34;;;;;;;7.90;5.90;;;;;;;5.56;100.00;97018.66;110398;1238;59809;-73
2024/01/02 09:32:06;;;;;;;9.70;6.20;;;;;;;5.89;100.00;97015.50;110436;1241;59689;-73
2024/01/02 09:34:35;;;;;;;7.40;5.00;;;;;;;6.63;100.00;97014.05;110391;1240;71685;-73
2024/01/02 09:37:06;;;;;;;9.20;5.00;;;;;;;7.41;100.00;97013.86;110384;1242;69098;-73
2024/01/02 09:39:35;;;;;;;6.90;4.80;;;;;;;7.93;95.47;97012.08;110348;1239;70238;-73
2024/01/02 09:42:05;;;;;;;6.80;5.50;;;;;;;8.36;94.41;97011.25;110360;1238;59687;-74
2024/01/02 09:44:48;;;;;;;7.90;5.30;;;;;;;8.71;90.88;97009.11;110426;1241;59630;-74
2024/01/02 09:48:07;;;;;;;8.20;5.20;;;;;;;8.60;83.43;96999.66;110389;1242;71427;-74
2024/01/02 09:50:51;;;;;;;7.40;4.90;;;;;;;8.59;82.10;97003.32;109673;1247;67870;-74
2024/01/02 09:54:00;;;;;;;8.10;4.90;;;;;;;8.92;84.39;97010.23;110372;1242;69265;-71
2024/01/02 09:56:44;;;;;;;6.20;4.60;;;;;;;9.08;79.56;97007.31;110357;1242;59666;-73
2024/01/02 09:59:18;;;;;;;;;;;;;;;8.89;78.89;97010.75;110392;1242;59666;-75
2024/01/02 10:02:21;;;;;;;10.20;5.90;;;;;;;8.39;79.43;97001.81;110323;1239;70217;-74
2024/01/02 10:05:01;;;;;;;7.00;4.70;;;;;;;8.76;79.57;97002.69;110410;1242;69800;-74
2024/01/02 10:07:49;;;;;;;7.70;5.30;;;;;;;9.59;76.56;97003.99;110355;1241;69854;-74
2024/01/02 10:10:32;;;;;;;10.60;6.40;;;;;;;10.47;73.75;97000.96;110371;1241;59678;-74
2024/01/02 10:13:24;;;;;;;8.40;6.10;;;;;;;10.61;69.53;96994.92;110449;1241;59695;-75
2024/01/02 10:16:15;;;;;;;7.80;5.40;;;;;;;10.37;70.05;96990.41;110426;1241;71416;-74
2024/01/02 10:19:23;;;;;;;9.40;5.10;;;;;;;10.05;70.00;96978.02;110405;1242;69884;-75
2024/01/02 10:22:07;;;;;;;6.50;4.20;;;;;;;10.79;67.64;96983.89;109628;1251;69610;-73
2024/01/02 10:24:52;;;;;;;8.90;5.90;;;;;;;11.31;65.76;96989.84;109660;1249;59673;-74
2024/01/02 10:27:42;;;;;;;7.40;5.50;;;;;;;11.47;62.97;96988.64;110135;1242;59656;-79
2024/01/02 10:30:17;;;;;;;6.80;4.90;;;;;;;10.90;62.74;96983.91;110462;1241;71797;-74
2024/01/02 10:32:57;;;;;;;8.30;5.10;;;;;;;10.36;64.06;96981.92;110332;1241;69044;-73
2024/01/02 10:35:32;;;;;;;6.30;5.20;;;;;;;10.30;66.00;96976.44;110342;1243;69861;-73
2024/01/02 10:38:14;;;;;;;7.30;6.20;;;;;;;10.51;65.08;96972.20;110354;1241;59712;-73
2024/01/02 10:40:50;;;;;;;6.90;4.60;;;;;;;11.00;62.96;96963.24;110388;1241;59627;-74
2024/01/02 10:43:30;;;;;;;7.50;4.00;;;;;;;11.98;60.16;96945.73;110170;1244;70949;-74
2024/01/02 10:46:33;;;;;;;9.10;5.00;;;;;;;12.42;57.71;96942.49;110321;1242;69302;-73
2024/01/02 10:49:20;;;;;;;6.70;4.20;;;;;;;13.01;56.83;96945.48;110301;1242;69549;-76
2024/01/02 10:52:23;;;;;;;6.70;4.70;;;;;;;13.03;55.17;96941.23;110307;1244;59747;-76
2024/01/02 10:55:19;;;;;;;5.50;4.00;;;;;;;13.11;54.00;96930.58;110324;1242;59680;-72
2024/01/02 10:58:07;;;;;;;6.00;3.60;;;;;;;12.78;52.53;96933.33;110445;1241;71966;-72
2024/01/02 11:00:50;;;;;;;9.30;5.70;;;;;;;13.02;53.78;96930.62;110397;1242;69846;-73
2024/01/02 11:03:27;;;;;;;7.80;5.50;;;;;;;14.06;51.77;96927.59;110392;1242;69135;-72
2024/01/02 11:06:05;;;;;;;7.40;4.90;;;;;;;13.87;50.33;96925.52;110131;1242;419762;-73
2024/01/02 11:08:41;;;;;;;7.40;5.00;;;;;;;13.08;52.02;96929.99;110279;1242;59740;-75
2024/01/02 11:11:12;;;;;;;6.50;4.50;;;;;;;11.82;54.21;96931.50;110327;1242;71983;-74
2024/01/02 11:13:43;;;;;;;7.90;5.50;;;;;;;10.80;57.40;96931.52;110297;1242;69150;-72
2024/01/02 11:16:19;;;;;;;7.30;4.50;;;;;;;11.01;57.43;96927.58;110325;1242;68574;-73
2024/01/02 11:18:55;;;;;;;15.30;11.90;;;;;;;10.95;58.48;96919.38;110277;1242;59772;-74
2024/01/02 11:22:08;;;;;;;7.00;5.00;;;;;;;11.11;57.26;96910.20;110322;1241;59722;-73
2024/01/02 11:24:49;;;;;;;6.10;3.90;;;;;;;11.54;56.41;96901.17;110167;1242;71486;-75
2024/01/02 11:27:24;;;;;;;5.90;4.00;;;;;;;11.82;56.30;96902.56;110312;1241;68503;-73
2024/01/02 11:29:56;;;;;;;5.90;3.40;;;;;;;12.83;53.32;96900.06;110293;1241;68277;-73
2024/01/02 11:32:40;;;;;;;5.80;3.20;;;;;;;13.75;52.46;96896.48;110276;1241;59735;-74
2024/01/02 11:35:11;;;;;;;5.20;3.70;;;;;;;14.68;50.31;96899.93;110307;1242;59637;-73
2024/01/02 11:37:45;;;;;;;6.30;4.00;;;;;;;14.72;48.26;96900.02;110344;1241;71381;-74
2024/01/02 11:40:33;;;;;;;6.40;3.80;;;;;;;14.89;47.99;96900.50;110291;1242;69578;-73
2024/01/02 11:43:07;;;;;;;5.40;3.50;;;;;;;15.48;47.02;96894.61;110287;1242;69110;-73
2024/01/02 11:45:39;;;;;;;5.00;3.60;;;;;;;15.82;45.00;96890.33;110321;1240;59714;-75
2024/01/02 11:48:18;;;;;;;4.80;3.50;;;;;;;15.81;46.92;96889.04;110184;1240;59701;-73
2024/01/02 11:50:52;;;;;;;5.30;3.70;;;;;;;15.41;45.24;96892.14;110365;1241;71642;-73
2024/01/02 11:53:41;;;;;;;15.30;11.30;;;;;;;16.04;45.80;96889.25;110375;1241;69280;-71